Time;durP1;ratioP1;P1;durP2;ratioP2;P2;SDS_P1;SDS_P2;PMS_P1;PMS_P2;Temp;Humidity;BMP_temperature;BMP_pressure;BME280_temperature;BME280_humidity;BME280_pressure;Samples;Min_cycle;Max_cycle;Signal;HPM_P1;HPM_P2
2024/01/21 00:01:25;;;;;;;1.23;0.83;;;6.40;99.90;;;;;;5052247;28;20180;-75
2024/01/21 00:03:50;;;;;;;4.67;1.30;;;6.20;99.90;;;;;;5051321;28;20229;-75
2024/01/21 00:06:16;;;;;;;3.73;1.30;;;6.50;99.90;;;;;;5051620;28;20691;-76
2024/01/21 00:08:43;;;;;;;4.00;1.07;;;;;;;;;;5051633;28;20208;-76
2024/01/21 00:11:08;;;;;;;3.07;1.10;;;6.40;99.90;;;;;;5052143;28;20240;-75
2024/01/21 00:13:34;;;;;;;1.10;0.70;;;6.60;99.90;;;;;;5051714;28;20263;-75
2024/01/21 00:16:00;;;;;;;1.97;1.00;;;6.60;99.90;;;;;;5052016;28;20165;-76
2024/01/21 00:18:26;;;;;;;2.40;0.90;;;;;;;;;;5033050;28;20310;-76
2024/01/21 00:20:51;;;;;;;3.47;1.10;;;6.40;99.90;;;;;;5051341;28;20193;-76
2024/01/21 00:23:17;;;;;;;1.30;0.60;;;7.00;99.90;;;;;;5051802;28;20640;-76
2024/01/21 00:25:43;;;;;;;1.27;0.77;;;5.50;99.90;;;;;;5051484;28;20691;-76
2024/01/21 00:28:09;;;;;;;1.23;0.70;;;;;;;;;;5051267;28;20703;-77
2024/01/21 00:30:34;;;;;;;2.87;0.73;;;6.60;99.90;;;;;;5047096;28;20173;-75
2024/01/21 00:33:00;;;;;;;3.43;0.90;;;;;;;;;;5046018;28;20264;-76
2024/01/21 00:35:26;;;;;;;2.50;0.90;;;6.70;99.90;;;;;;5032943;28;20662;-76
2024/01/21 00:37:52;;;;;;;2.13;0.80;;;6.50;99.90;;;;;;5051043;28;20219;-76
2024/01/21 00:40:17;;;;;;;4.40;1.17;;;6.20;99.90;;;;;;5033740;28;20201;-77
2024/01/21 00:42:43;;;;;;;1.00;0.50;;;6.60;99.90;;;;;;5033445;28;20173;-76
2024/01/21 00:45:09;;;;;;;1.23;0.80;;;6.70;99.90;;;;;;5033828;28;20180;-77
2024/01/21 00:47:35;;;;;;;1.00;0.57;;;;;;;;;;5051930;28;20622;-76
2024/01/21 00:50:01;;;;;;;3.47;0.90;;;6.70;99.90;;;;;;5044326;28;20177;-76
2024/01/21 00:52:27;;;;;;;1.80;0.63;;;;;;;;;;5062791;28;20228;-76
2024/01/21 00:54:53;;;;;;;2.67;0.57;;;;;;;;;;5064780;28;20181;-76
2024/01/21 00:57:19;;;;;;;0.80;0.50;;;6.80;99.90;;;;;;5045904;28;20212;-76
2024/01/21 00:59:45;;;;;;;1.53;0.80;;;6.80;99.90;;;;;;5064972;28;20624;-78
2024/01/21 01:02:11;;;;;;;1.93;0.83;;;6.80;99.90;;;;;;5032507;28;20273;-76
2024/01/21 01:04:37;;;;;;;1.33;0.60;;;;;;;;;;5044417;28;20174;-76
2024/01/21 01:07:03;;;;;;;2.87;0.80;;;;;;;;;;5026581;28;20220;-76
2024/01/21 01:09:29;;;;;;;3.07;0.70;;;;;;;;;;5044205;28;20200;-75
2024/01/21 01:11:55;;;;;;;1.87;0.67;;;;;;;;;;5043170;28;20201;-74
2024/01/21 01:14:20;;;;;;;1.90;0.77;;;6.60;99.90;;;;;;5044134;28;20194;-74
2024/01/21 01:16:47;;;;;;;1.33;0.60;;;;;;;;;;5042239;28;20637;-74
2024/01/21 01:19:13;;;;;;;0.87;0.50;;;;;;;;;;5058790;28;20199;-73
2024/01/21 01:21:39;;;;;;;0.93;0.40;;;;;;;;;;5064417;28;20165;-73
2024/01/21 01:24:05;;;;;;;0.87;0.50;;;;;;;;;;5064538;28;20248;-73
2024/01/21 01:26:31;;;;;;;0.73;0.40;;;6.90;99.90;;;;;;5045511;28;20181;-75
2024/01/21 01:28:58;;;;;;;0.50;0.40;;;;;;;;;;5063261;28;20174;-75
2024/01/21 01:31:23;;;;;;;3.27;0.80;;;7.20;99.90;;;;;;5064464;28;20193;-75
2024/01/21 01:33:49;;;;;;;0.60;0.40;;;6.90;99.90;;;;;;5065507;28;20184;-75
2024/01/21 01:36:16;;;;;;;1.43;0.50;;;;;;;;;;5065376;28;20183;-75
2024/01/21 01:38:41;;;;;;;0.53;0.30;;;7.00;99.90;;;;;;5066134;28;20177;-76
2024/01/21 01:41:07;;;;;;;1.70;0.50;;;;;;;;;;5065505;28;20663;-77
2024/01/21 01:43:33;;;;;;;1.70;0.50;;;;;;;;;;5065850;28;20240;-77
2024/01/21 01:46:00;;;;;;;0.63;0.20;;;7.00;99.90;;;;;;5057941;28;20220;-77
2024/01/21 01:48:27;;;;;;;0.93;0.30;;;7.20;99.90;;;;;;5046168;28;20205;-76
2024/01/21 01:50:54;;;;;;;0.67;0.20;;;;;;;;;;5057742;28;20208;-76
2024/01/21 01:53:20;;;;;;;1.40;0.47;;;;;;;;;;5064998;28;20165;-76
2024/01/21 01:55:46;;;;;;;1.40;0.40;;;7.20;99.90;;;;;;5064858;28;20244;-75
2024/01/21 01:58:15;;;;;;;0.90;0.20;;;7.20;99.90;;;;;;5046699;28;20166;-75
2024/01/21 02:00:41;;;;;;;0.20;0.10;;;;;;;;;;5061999;28;20188;-74
2024/01/21 02:03:08;;;;;;;0.77;0.30;;;7.30;99.90;;;;;;5064509;28;20213;-75
2024/01/21 02:05:34;;;;;;;0.50;0.30;;;7.40;99.90;;;;;;5063645;28;20177;-74
2024/01/21 02:08:00;;;;;;;0.70;0.20;;;7.60;99.90;;;;;;5062752;28;20217;-73
2024/01/21 02:10:29;;;;;;;0.50;0.10;;;7.20;99.90;;;;;;5045933;28;20185;-75
2024/01/21 02:12:55;;;;;;;1.90;0.43;;;7.30;99.90;;;;;;5063230;28;20260;-74
2024/01/21 02:15:21;;;;;;;0.50;0.10;;;7.60;99.90;;;;;;5063942;28;20177;-74
2024/01/21 02:17:47;;;;;;;0.30;0.10;;;7.60;99.90;;;;;;5060186;28;20162;-75
2024/01/21 02:20:12;;;;;;;0.30;0.10;;;7.20;99.90;;;;;;5059629;28;20178;-75
2024/01/21 02:22:40;;;;;;;2.00;0.60;;;7.60;99.90;;;;;;5059325;28;20176;-75
2024/01/21 02:25:06;;;;;;;0.30;0.17;;;7.30;99.90;;;;;;5059393;28;20648;-74
2024/01/21 02:27:33;;;;;;;0.83;0.30;;;7.60;99.90;;;;;;5059426;28;20201;-74
2024/01/21 02:29:58;;;;;;;0.40;0.20;;;7.60;99.90;;;;;;5055771;28;20173;-74
2024/01/21 02:32:24;;;;;;;0.20;0.07;;;7.80;99.90;;;;;;5053308;28;20910;-74
2024/01/21 02:34:50;;;;;;;0.87;0.20;;;;;;;;;;5052931;28;20165;-74
2024/01/21 02:37:16;;;;;;;1.53;0.37;;;7.80;99.90;;;;;;5053062;28;20196;-75
2024/01/21 02:39:42;;;;;;;0.30;0.10;;;;;;;;;;5053020;28;20177;-72
2024/01/21 02:42:07;;;;;;;0.70;0.23;;;7.60;99.90;;;;;;5052778;28;20169;-73
2024/01/21 02:44:33;;;;;;;0.30;0.10;;;8.00;99.90;;;;;;5052577;28;20234;-73
2024/01/21 02:46:59;;;;;;;0.00;0.00;;;8.00;99.90;;;;;;5052721;28;20236;-73
2024/01/21 02:49:28;;;;;;;0.20;0.10;;;;;;;;;;5052877;28;20256;-72
2024/01/21 02:51:54;;;;;;;0.47;0.20;;;;;;;;;;5035729;28;20192;-75
2024/01/21 02:54:20;;;;;;;0.50;0.20;;;;;;;;;;5052552;28;20166;-73
2024/01/21 02:56:46;;;;;;;0.30;0.20;;;8.00;99.90;;;;;;5034324;28;20177;-72
2024/01/21 02:59:12;;;;;;;0.40;0.03;;;;;;;;;;5052130;28;20234;-72
2024/01/21 03:01:41;;;;;;;0.40;0.10;;;8.10;99.90;;;;;;5052046;28;20204;-72
2024/01/21 03:04:11;;;;;;;0.57;0.10;;;7.70;99.90;;;;;;5051891;28;20193;-73
2024/01/21 03:06:37;;;;;;;0.33;0.00;;;;;;;;;;5051979;28;20350;-72
2024/01/21 03:09:03;;;;;;;0.30;0.00;;;8.00;99.90;;;;;;5051561;28;20534;-74
2024/01/21 03:11:29;;;;;;;0.20;0.00;;;;;;;;;;5050973;28;20280;-72
2024/01/21 03:13:55;;;;;;;0.50;0.20;;;8.20;99.90;;;;;;5051042;28;20249;-73
2024/01/21 03:16:21;;;;;;;0.63;0.10;;;;;;;;;;5051512;28;20669;-73
2024/01/21 03:18:47;;;;;;;0.20;0.03;;;;;;;;;;5051518;28;20172;-73
2024/01/21 03:21:13;;;;;;;0.20;0.10;;;;;;;;;;5051068;28;20166;-72
2024/01/21 03:23:39;;;;;;;0.83;0.30;;;;;;;;;;5051289;28;20252;-72
2024/01/21 03:26:05;;;;;;;0.70;0.20;;;;;;;;;;5051240;28;20648;-72
2024/01/21 03:28:31;;;;;;;0.57;0.30;;;8.50;99.90;;;;;;5051225;28;20219;-72
2024/01/21 03:30:56;;;;;;;1.10;0.33;;;10.30;99.90;;;;;;5017017;28;20174;-72
2024/01/21 03:33:22;;;;;;;0.80;0.20;;;8.80;99.90;;;;;;5033592;28;20196;-72
2024/01/21 03:35:48;;;;;;;0.33;0.10;;;;;;;;;;5051208;28;20222;-73
2024/01/21 03:38:14;;;;;;;1.33;0.40;;;8.80;99.90;;;;;;5051180;28;20239;-73
2024/01/21 03:40:40;;;;;;;1.20;0.30;;;;;;;;;;5051393;28;20256;-73
2024/01/21 03:43:05;;;;;;;0.53;0.20;;;9.10;99.90;;;;;;5051238;28;20575;-73
2024/01/21 03:45:31;;;;;;;0.47;0.20;;;;;;;;;;5051219;28;20743;-73
2024/01/21 03:47:57;;;;;;;1.00;0.40;;;9.00;99.90;;;;;;5051076;28;20209;-73
2024/01/21 03:50:23;;;;;;;1.40;0.37;;;;;;;;;;5051126;28;20527;-73
2024/01/21 03:52:49;;;;;;;1.70;0.40;;;;;;;;;;5051062;28;20188;-73
2024/01/21 03:55:17;;;;;;;2.00;0.50;;;9.00;99.90;;;;;;5050949;28;20169;-73
2024/01/21 03:57:43;;;;;;;1.17;0.40;;;9.10;99.90;;;;;;5033131;28;20257;-73
2024/01/21 04:00:10;;;;;;;1.53;0.50;;;9.00;99.90;;;;;;5050436;28;20703;-73
2024/01/21 04:02:36;;;;;;;1.57;0.33;;;;;;;;;;5050518;28;20224;-73
2024/01/21 04:05:03;;;;;;;1.27;0.30;;;9.20;99.90;;;;;;5032550;28;20185;-73
2024/01/21 04:07:29;;;;;;;0.80;0.30;;;9.30;99.90;;;;;;5030799;28;20748;-74
2024/01/21 04:09:55;;;;;;;0.87;0.30;;;9.40;99.90;;;;;;5049349;28;20256;-72
2024/01/21 04:12:21;;;;;;;0.83;0.27;;;;;;;;;;5050545;28;20205;-72
2024/01/21 04:14:47;;;;;;;0.80;0.33;;;9.50;99.90;;;;;;5050395;28;20676;-72
2024/01/21 04:17:13;;;;;;;1.40;0.40;;;;;;;;;;5050262;28;20181;-73
2024/01/21 04:19:38;;;;;;;1.10;0.30;;;9.50;99.90;;;;;;5040505;28;20208;-73
2024/01/21 04:22:04;;;;;;;0.67;0.30;;;;;;;;;;5050877;28;20220;-72
2024/01/21 04:24:30;;;;;;;1.40;0.40;;;;;;;;;;5054687;28;20230;-73
2024/01/21 04:26:56;;;;;;;0.97;0.37;;;9.90;99.90;;;;;;5054260;28;20262;-72
2024/01/21 04:29:22;;;;;;;1.40;0.40;;;9.30;99.90;;;;;;5054250;28;20177;-71
2024/01/21 04:31:48;;;;;;;0.70;0.20;;;;;;;;;;5054568;28;20197;-71
2024/01/21 04:34:14;;;;;;;1.10;0.30;;;9.50;99.90;;;;;;5036680;28;20890;-71
2024/01/21 04:36:40;;;;;;;0.77;0.40;;;;;;;;;;5054315;28;20185;-70
2024/01/21 04:39:08;;;;;;;1.80;0.60;;;9.10;99.90;;;;;;5054454;28;20193;-71
2024/01/21 04:41:35;;;;;;;2.30;0.60;;;;;;;;;;5053738;28;20181;-72
2024/01/21 04:44:01;;;;;;;1.37;0.30;;;;;;;;;;5054270;28;20216;-74
2024/01/21 04:46:27;;;;;;;0.60;0.27;;;;;;;;;;5053845;28;20207;-72
2024/01/21 04:48:53;;;;;;;0.30;0.13;;;;;;;;;;5054031;28;20189;-72
2024/01/21 04:51:18;;;;;;;0.80;0.20;;;9.10;99.90;;;;;;5053848;28;20204;-71
2024/01/21 04:53:45;;;;;;;0.40;0.20;;;9.20;99.90;;;;;;5054188;28;20635;-71
2024/01/21 04:56:18;;;;;;;0.57;0.20;;;9.00;99.90;;;;;;5053921;28;20191;-71
2024/01/21 04:58:44;;;;;;;0.83;0.30;;;;;;;;;;5053659;28;20231;-72
2024/01/21 05:01:10;;;;;;;1.07;0.30;;;9.00;99.90;;;;;;5035654;28;20189;-72
2024/01/21 05:03:36;;;;;;;0.50;0.20;;;;;;;;;;5053536;28;20240;-72
2024/01/21 05:06:03;;;;;;;0.73;0.20;;;9.10;99.90;;;;;;5053866;28;20199;-72
2024/01/21 05:08:29;;;;;;;0.40;0.13;;;9.20;99.90;;;;;;5053782;28;20955;-72
2024/01/21 05:10:55;;;;;;;0.90;0.33;;;;;;;;;;5053387;28;20264;-71
2024/01/21 05:13:20;;;;;;;1.00;0.27;;;8.70;99.90;;;;;;5053549;28;20624;-72
2024/01/21 05:15:46;;;;;;;0.70;0.20;;;;;;;;;;5035855;28;20235;-72
2024/01/21 05:18:12;;;;;;;0.60;0.20;;;9.30;99.90;;;;;;5053616;28;20216;-72
2024/01/21 05:20:38;;;;;;;1.40;0.40;;;;;;;;;;5053737;28;20636;-71
2024/01/21 05:23:04;;;;;;;1.00;0.30;;;8.90;99.90;;;;;;5054026;28;20859;-71
2024/01/21 05:25:30;;;;;;;1.17;0.40;;;;;;;;;;5053771;28;20180;-71
2024/01/21 05:27:56;;;;;;;0.60;0.30;;;9.10;99.90;;;;;;5053386;28;20201;-71
2024/01/21 05:30:22;;;;;;;1.40;0.40;;;;;;;;;;5053310;28;20165;-72
2024/01/21 05:32:50;;;;;;;0.90;0.30;;;9.40;99.90;;;;;;5053536;28;20181;-72
2024/01/21 05:35:17;;;;;;;1.73;0.60;;;9.50;99.90;;;;;;5052775;28;20161;-72
2024/01/21 05:37:42;;;;;;;1.93;0.63;;;9.40;99.90;;;;;;5053405;28;20636;-72
2024/01/21 05:40:08;;;;;;;1.03;0.40;;;9.50;99.90;;;;;;5053346;28;20184;-72
2024/01/21 05:42:34;;;;;;;2.33;0.60;;;9.30;99.90;;;;;;5050874;28;20184;-72
2024/01/21 05:45:00;;;;;;;0.97;0.40;;;;;;;;;;5041757;28;20230;-72
2024/01/21 05:47:26;;;;;;;1.57;0.50;;;9.40;99.90;;;;;;5052960;28;20639;-72
2024/01/21 05:49:52;;;;;;;2.43;1.03;;;;;;;;;;5039572;28;20170;-72
2024/01/21 05:52:17;;;;;;;1.40;0.73;;;9.40;99.90;;;;;;5033120;28;20174;-72
2024/01/21 05:54:44;;;;;;;2.50;0.67;;;;;;;;;;5033091;28;20633;-73
2024/01/21 05:57:10;;;;;;;5.20;1.37;;;;;;;;;;5032840;28;20629;-72
2024/01/21 05:59:35;;;;;;;2.73;1.07;;;9.80;99.90;;;;;;5033030;28;20210;-72
2024/01/21 06:02:01;;;;;;;5.00;1.37;;;9.50;99.90;;;;;;5045811;28;20248;-72
2024/01/21 06:04:27;;;;;;;3.70;1.23;;;;;;;;;;5052812;28;20269;-73
2024/01/21 06:06:53;;;;;;;3.43;1.50;;;9.80;99.90;;;;;;5052756;28;20299;-72
2024/01/21 06:09:19;;;;;;;5.90;1.87;;;;;;;;;;5052530;28;20173;-73
2024/01/21 06:11:45;;;;;;;6.17;2.10;;;9.90;99.90;;;;;;5051886;28;20291;-73
2024/01/21 06:14:11;;;;;;;4.70;2.10;;;9.90;99.90;;;;;;5052370;28;20539;-73
2024/01/21 06:16:37;;;;;;;5.10;2.17;;;10.90;99.90;;;;;;5052394;28;20238;-72
2024/01/21 06:19:03;;;;;;;6.97;2.17;;;9.80;99.90;;;;;;5052160;28;20229;-72
2024/01/21 06:21:29;;;;;;;7.03;2.37;;;9.80;99.90;;;;;;5052413;28;20205;-72
2024/01/21 06:23:55;;;;;;;8.23;2.73;;;10.30;99.90;;;;;;5051924;28;20631;-72
2024/01/21 06:26:22;;;;;;;7.77;2.50;;;;;;;;;;5051797;28;20647;-72
2024/01/21 06:28:49;;;;;;;4.60;2.23;;;9.80;99.90;;;;;;5052333;28;20235;-72
2024/01/21 06:31:14;;;;;;;7.03;2.20;;;10.20;99.90;;;;;;5034326;28;20173;-72
2024/01/21 06:33:41;;;;;;;7.47;2.30;;;9.60;99.90;;;;;;5052337;28;20640;-72
2024/01/21 06:36:07;;;;;;;7.93;2.90;;;11.10;99.90;;;;;;5052200;28;20165;-72
2024/01/21 06:38:33;;;;;;;9.60;2.83;;;;;;;;;;5052095;28;20183;-74
2024/01/21 06:40:59;;;;;;;5.03;2.33;;;;;;;;;;5051985;28;20173;-73
2024/01/21 06:43:25;;;;;;;9.83;3.10;;;10.00;99.90;;;;;;5051922;28;20180;-73
2024/01/21 06:45:51;;;;;;;9.40;3.10;;;;;;;;;;5050804;28;20185;-73
2024/01/21 06:48:17;;;;;;;9.80;3.07;;;;;;;;;;5052311;28;20205;-73
2024/01/21 06:50:48;;;;;;;10.83;3.30;;;10.00;99.90;;;;;;5052080;28;20177;-73
2024/01/21 06:53:14;;;;;;;9.80;3.20;;;;;;;;;;5051861;28;20693;-73
2024/01/21 06:55:40;;;;;;;7.77;2.83;;;;;;;;;;5051898;28;20166;-73
2024/01/21 06:58:06;;;;;;;9.40;3.10;;;;;;;;;;5051723;28;20176;-73
2024/01/21 07:00:32;;;;;;;8.43;2.87;;;9.90;99.90;;;;;;5051642;28;20170;-73
2024/01/21 07:02:58;;;;;;;10.10;3.13;;;9.80;99.90;;;;;;5051512;28;20676;-74
2024/01/21 07:05:24;;;;;;;9.93;3.40;;;;;;;;;;5051661;28;20223;-73
2024/01/21 07:07:49;;;;;;;9.30;3.40;;;9.70;99.90;;;;;;5051466;28;20619;-73
2024/01/21 07:10:15;;;;;;;7.53;3.10;;;;;;;;;;5051616;28;20260;-73
2024/01/21 07:12:42;;;;;;;8.77;2.80;;;;;;;;;;5051764;28;20211;-73
2024/01/21 07:15:08;;;;;;;6.90;3.10;;;;;;;;;;5051543;28;20303;-73
2024/01/21 07:17:34;;;;;;;5.07;2.80;;;;;;;;;;5051417;28;20173;-73
2024/01/21 07:20:00;;;;;;;10.13;3.40;;;;;;;;;;5051277;28;20180;-73
2024/01/21 07:22:26;;;;;;;9.67;3.70;;;9.80;99.90;;;;;;5051446;28;20177;-73
2024/01/21 07:24:53;;;;;;;9.20;3.23;;;;;;;;;;5051155;28;20657;-73
2024/01/21 07:27:19;;;;;;;11.20;3.43;;;10.10;99.90;;;;;;5050802;28;20554;-73
2024/01/21 07:29:45;;;;;;;10.40;3.67;;;;;;;;;;5050860;28;20177;-73
2024/01/21 07:32:11;;;;;;;12.20;3.73;;;;;;;;;;5051295;28;20628;-73
2024/01/21 07:34:36;;;;;;;12.23;3.50;;;10.10;99.90;;;;;;5050905;28;20187;-73
2024/01/21 07:37:02;;;;;;;11.87;3.90;;;10.20;99.90;;;;;;5032732;28;20189;-73
2024/01/21 07:39:28;;;;;;;8.90;3.40;;;;;;;;;;5050848;28;20219;-73
2024/01/21 07:41:54;;;;;;;7.90;3.17;;;;;;;;;;5050954;28;20184;-73
2024/01/21 07:44:19;;;;;;;8.67;3.30;;;10.20;99.90;;;;;;5032980;28;20538;-73
2024/01/21 07:46:46;;;;;;;9.70;3.37;;;9.90;99.90;;;;;;5050922;28;20180;-73
2024/01/21 07:49:12;;;;;;;7.73;3.10;;;;;;;;;;5050853;28;20302;-73
2024/01/21 07:51:37;;;;;;;9.63;3.47;;;9.90;99.90;;;;;;5051079;28;20200;-73
2024/01/21 07:54:03;;;;;;;8.97;3.57;;;10.30;99.90;;;;;;5032687;28;20674;-74
2024/01/21 07:56:28;;;;;;;12.30;4.17;;;10.20;99.90;;;;;;5050683;28;20165;-73
2024/01/21 07:58:54;;;;;;;15.70;3.93;;;;;;;;;;5050735;28;20535;-72
2024/01/21 08:01:21;;;;;;;7.67;3.33;;;9.80;99.90;;;;;;5040582;28;20786;-72
2024/01/21 08:03:48;;;;;;;9.90;3.70;;;;;;;;;;5010710;28;20287;-73
2024/01/21 08:06:14;;;;;;;11.87;3.83;;;;;;;;;;5010359;28;20532;-74
2024/01/21 08:08:40;;;;;;;15.43;4.10;;;10.10;99.90;;;;;;5011296;28;20482;-74
2024/01/21 08:11:05;;;;;;;13.87;4.37;;;10.40;99.90;;;;;;5011136;28;20252;-74
2024/01/21 08:13:31;;;;;;;15.57;4.50;;;10.00;99.90;;;;;;5010994;28;20217;-74
2024/01/21 08:15:57;;;;;;;15.70;4.27;;;;;;;;;;5010574;28;20178;-74
2024/01/21 08:18:24;;;;;;;14.63;4.40;;;10.10;99.90;;;;;;5009691;28;20193;-74
2024/01/21 08:20:50;;;;;;;13.17;4.00;;;10.10;99.90;;;;;;5010998;28;20159;-74
2024/01/21 08:23:16;;;;;;;12.80;3.60;;;;;;;;;;5009689;28;20645;-75
2024/01/21 08:25:42;;;;;;;17.17;4.43;;;10.00;99.90;;;;;;5011021;28;20166;-75
2024/01/21 08:28:08;;;;;;;12.80;4.33;;;;;;;;;;5011096;28;20210;-74
2024/01/21 08:30:34;;;;;;;15.23;4.10;;;9.60;99.90;;;;;;5010454;28;20625;-77
2024/01/21 08:32:59;;;;;;;17.63;4.70;;;10.20;99.90;;;;;;5009584;28;20183;-73
2024/01/21 08:35:25;;;;;;;14.63;4.40;;;10.10;99.90;;;;;;5010783;28;20179;-76
2024/01/21 08:37:51;;;;;;;11.40;4.23;;;;;;;;;;5010924;28;20233;-73
2024/01/21 08:40:17;;;;;;;10.03;4.00;;;10.00;99.90;;;;;;5010745;28;20269;-73
2024/01/21 08:42:42;;;;;;;10.13;3.60;;;10.30;99.90;;;;;;5011053;28;20209;-73
2024/01/21 08:45:08;;;;;;;9.50;3.87;;;10.20;99.90;;;;;;5010979;28;20173;-77
2024/01/21 08:47:35;;;;;;;14.40;4.23;;;;;;;;;;5010858;28;20202;-74
2024/01/21 08:50:01;;;;;;;16.60;4.87;;;;;;;;;;5009545;28;20193;-73
2024/01/21 08:52:27;;;;;;;16.10;4.90;;;10.40;99.90;;;;;;5010742;28;20178;-74
2024/01/21 08:54:53;;;;;;;12.00;4.10;;;10.30;99.90;;;;;;5010649;28;20645;-73
2024/01/21 08:57:19;;;;;;;10.60;3.83;;;;;;;;;;5010427;28;20263;-74
2024/01/21 08:59:45;;;;;;;20.53;5.27;;;;;;;;;;5010730;28;20253;-74
2024/01/21 09:02:11;;;;;;;20.17;5.13;;;10.60;99.90;;;;;;5021586;28;20334;-74
2024/01/21 09:04:42;;;;;;;15.77;4.97;;;10.40;99.90;;;;;;5049187;28;20681;-74
2024/01/21 09:07:09;;;;;;;13.47;4.40;;;;;;;;;;5049586;28;20258;-74
2024/01/21 09:09:35;;;;;;;15.87;4.70;;;10.60;99.90;;;;;;5051566;28;20268;-73
2024/01/21 09:12:01;;;;;;;13.80;4.77;;;10.50;99.90;;;;;;5053607;28;20679;-74
2024/01/21 09:14:27;;;;;;;19.27;5.13;;;;;;;;;;5053730;28;20624;-74
2024/01/21 09:16:53;;;;;;;12.80;4.67;;;10.70;99.90;;;;;;5034105;28;20200;-74
2024/01/21 09:19:19;;;;;;;14.93;4.60;;;;;;;;;;5033943;28;20693;-75
2024/01/21 09:21:45;;;;;;;17.83;5.53;;;10.30;99.90;;;;;;5036976;28;20173;-74
2024/01/21 09:24:14;;;;;;;11.80;4.43;;;;;;;;;;5053038;28;20211;-74
2024/01/21 09:26:40;;;;;;;16.40;4.70;;;10.50;99.90;;;;;;5033461;28;20269;-74
2024/01/21 09:29:06;;;;;;;18.13;5.20;;;10.60;99.90;;;;;;5048674;28;20185;-74
2024/01/21 09:31:31;;;;;;;19.93;4.80;;;10.40;99.90;;;;;;5053477;28;20166;-74
2024/01/21 09:33:57;;;;;;;11.33;4.10;;;;;;;;;;5044355;28;20189;-73
2024/01/21 09:36:23;;;;;;;14.90;4.90;;;10.40;99.90;;;;;;5053424;28;20286;-75
2024/01/21 09:38:53;;;;;;;16.70;5.40;;;;;;;;;;5052753;28;20726;-74
2024/01/21 09:41:46;;;;;;;22.03;5.03;;;10.70;99.90;;;;;;5053273;28;20687;-74
2024/01/21 09:44:12;;;;;;;17.40;5.00;;;;;;;;;;5047051;28;20185;-74
2024/01/21 09:46:37;;;;;;;15.33;4.43;;;10.80;99.90;;;;;;5048359;28;20185;-74
2024/01/21 09:49:06;;;;;;;15.60;4.77;;;10.70;99.90;;;;;;5053121;28;20173;-74
2024/01/21 09:51:32;;;;;;;16.50;5.27;;;10.90;99.90;;;;;;5053067;28;20185;-73
2024/01/21 09:54:04;;;;;;;19.47;5.20;;;10.50;99.90;;;;;;5052929;28;20246;-74
2024/01/21 09:56:30;;;;;;;24.57;5.23;;;;;;;;;;5052702;28;20532;-74
2024/01/21 09:58:57;;;;;;;20.17;5.23;;;10.80;99.90;;;;;;5052722;28;20184;-74
2024/01/21 10:01:23;;;;;;;17.93;5.27;;;10.80;99.90;;;;;;5052880;28;20177;-74
2024/01/21 10:03:49;;;;;;;20.10;4.30;;;10.90;99.90;;;;;;5053324;28;20213;-74
2024/01/21 10:06:16;;;;;;;17.70;4.57;;;10.60;99.90;;;;;;5052330;28;20176;-73
2024/01/21 10:08:43;;;;;;;20.87;4.80;;;;;;;;;;5034849;28;20284;-73
2024/01/21 10:11:09;;;;;;;21.37;4.47;;;11.00;99.90;;;;;;5052704;28;20743;-73
2024/01/21 10:13:38;;;;;;;20.67;4.80;;;;;;;;;;5052656;28;20177;-73
2024/01/21 10:16:05;;;;;;;19.47;4.83;;;10.70;99.90;;;;;;5051771;28;20177;-74
2024/01/21 10:18:30;;;;;;;13.33;3.83;;;11.10;99.90;;;;;;5048970;28;20846;-74
2024/01/21 10:20:57;;;;;;;22.70;5.00;;;11.10;99.90;;;;;;5034416;28;20170;-74
2024/01/21 10:23:23;;;;;;;21.07;4.80;;;10.90;99.90;;;;;;5052687;28;20165;-73
2024/01/21 10:25:49;;;;;;;18.10;5.03;;;10.70;99.90;;;;;;5050963;28;20173;-72
2024/01/21 10:28:15;;;;;;;19.93;4.73;;;;;;;;;;5052484;28;20761;-73
2024/01/21 10:30:44;;;;;;;21.63;4.60;;;11.00;99.90;;;;;;5052038;28;20181;-73
2024/01/21 10:33:11;;;;;;;24.63;5.03;;;11.00;99.90;;;;;;5052289;28;20173;-72
2024/01/21 10:35:37;;;;;;;18.67;5.00;;;;;;;;;;5051643;28;20169;-72
2024/01/21 10:38:05;;;;;;;17.77;4.57;;;;;;;;;;5051968;28;20181;-72
2024/01/21 10:40:31;;;;;;;17.00;4.83;;;;;;;;;;5052129;28;20216;-72
2024/01/21 10:42:59;;;;;;;21.17;5.40;;;;;;;;;;5034329;28;20264;-72
2024/01/21 10:45:28;;;;;;;21.90;5.27;;;11.30;99.90;;;;;;5051634;28;20173;-72
2024/01/21 10:47:56;;;;;;;18.07;4.67;;;11.30;99.90;;;;;;5052033;28;20213;-72
2024/01/21 10:50:23;;;;;;;18.00;5.03;;;11.40;99.90;;;;;;5051865;28;20202;-72
2024/01/21 10:52:50;;;;;;;14.03;4.47;;;11.30;99.90;;;;;;5052100;28;20280;-72
2024/01/21 10:55:16;;;;;;;27.57;5.40;;;11.70;99.90;;;;;;5051426;28;20165;-72
2024/01/21 10:57:50;;;;;;;10.80;4.00;;;11.50;99.90;;;;;;5026860;28;20648;-73
2024/01/21 11:00:17;;;;;;;16.83;4.80;;;11.50;99.90;;;;;;5029175;28;20535;-73
2024/01/21 11:03:21;;;;;;;15.70;4.77;;;11.40;99.90;;;;;;5051384;28;20304;-72
2024/01/21 11:05:47;;;;;;;15.43;5.13;;;11.50;99.90;;;;;;5051309;28;20193;-72
2024/01/21 11:08:15;;;;;;;22.37;5.40;;;12.30;99.90;;;;;;5051652;28;20244;-72
2024/01/21 11:10:41;;;;;;;19.00;5.80;;;;;;;;;;5051557;28;20632;-73
2024/01/21 11:13:07;;;;;;;18.73;5.70;;;12.10;99.90;;;;;;5051398;28;20624;-72
2024/01/21 11:15:33;;;;;;;17.73;5.57;;;;;;;;;;5050968;28;20233;-70
2024/01/21 11:18:22;;;;;;;20.17;5.27;;;12.20;99.90;;;;;;5051091;28;20177;-71
2024/01/21 11:21:01;;;;;;;18.80;5.30;;;12.00;99.90;;;;;;5051324;28;20268;-71
2024/01/21 11:23:27;;;;;;;21.77;5.17;;;12.10;99.90;;;;;;5051028;28;20188;-73
2024/01/21 11:25:54;;;;;;;26.50;5.83;;;12.10;99.90;;;;;;5050703;28;20174;-71
2024/01/21 11:28:28;;;;;;;26.40;5.93;;;12.20;99.90;;;;;;5051051;28;20259;-72
2024/01/21 11:31:05;;;;;;;19.90;5.50;;;12.30;99.90;;;;;;5049811;28;20176;-72
2024/01/21 11:33:31;;;;;;;23.90;5.53;;;12.30;99.90;;;;;;5050064;28;20199;-71
2024/01/21 11:35:59;;;;;;;27.07;6.13;;;12.30;99.90;;;;;;5050857;28;20615;-72
2024/01/21 11:38:26;;;;;;;24.77;5.70;;;12.30;99.90;;;;;;5049872;28;20217;-71
2024/01/21 11:41:02;;;;;;;24.00;6.07;;;12.20;99.90;;;;;;5050055;28;20196;-71
2024/01/21 11:43:29;;;;;;;14.47;4.00;;;;;;;;;;5050573;28;20184;-71
2024/01/21 11:45:55;;;;;;;19.73;5.20;;;;;;;;;;5051001;28;20193;-71
2024/01/21 11:48:30;;;;;;;20.83;5.30;;;12.30;99.90;;;;;;5051132;28;20205;-71
2024/01/21 11:50:56;;;;;;;31.77;6.73;;;13.90;99.90;;;;;;5050447;28;20192;-72
2024/01/21 11:53:22;;;;;;;18.60;5.67;;;12.60;99.90;;;;;;5050674;28;20192;-72
2024/01/21 11:55:48;;;;;;;25.27;5.93;;;12.70;99.90;;;;;;5050743;28;20181;-72
2024/01/21 11:58:15;;;;;;;24.47;6.27;;;12.60;99.90;;;;;;5031989;28;20284;-72
2024/01/21 12:00:41;;;;;;;23.27;5.60;;;12.30;99.90;;;;;;5050483;28;20173;-71
2024/01/21 12:03:07;;;;;;;12.50;4.60;;;;;;;;;;5050615;28;20304;-71
2024/01/21 12:05:36;;;;;;;24.70;6.53;;;13.00;99.90;;;;;;5050920;28;20200;-71
2024/01/21 12:08:02;;;;;;;27.30;5.57;;;13.00;99.90;;;;;;5050666;28;20213;-71
2024/01/21 12:10:29;;;;;;;21.53;5.43;;;12.60;99.90;;;;;;5050086;28;20166;-72
2024/01/21 12:12:55;;;;;;;21.40;5.13;;;;;;;;;;5050409;28;20173;-71
2024/01/21 12:15:20;;;;;;;27.60;5.17;;;12.60;99.90;;;;;;5049885;28;20177;-71
2024/01/21 12:17:54;;;;;;;21.63;5.23;;;12.60;99.90;;;;;;5049865;28;20165;-71
2024/01/21 12:20:20;;;;;;;24.67;6.37;;;12.80;99.90;;;;;;5050278;28;20173;-71
2024/01/21 12:22:46;;;;;;;23.73;6.30;;;;;;;;;;5050038;28;20199;-72
2024/01/21 12:25:12;;;;;;;13.87;5.10;;;13.10;99.90;;;;;;5050673;28;20192;-71
2024/01/21 12:27:43;;;;;;;27.17;6.63;;;13.30;99.90;;;;;;5050499;28;20243;-71
2024/01/21 12:30:14;;;;;;;18.23;5.13;;;12.70;99.90;;;;;;5032854;28;20189;-71
2024/01/21 12:32:40;;;;;;;13.83;4.90;;;12.80;99.90;;;;;;5031542;28;20176;-71
2024/01/21 12:35:07;;;;;;;18.63;5.50;;;;;;;;;;5050253;28;20205;-71
2024/01/21 12:37:32;;;;;;;29.43;7.00;;;12.70;99.90;;;;;;5050841;28;20158;-72
2024/01/21 12:40:00;;;;;;;24.77;6.13;;;;;;;;;;5049864;28;20530;-71
2024/01/21 12:42:26;;;;;;;20.17;5.40;;;12.50;99.90;;;;;;5050631;28;20173;-72
2024/01/21 12:44:52;;;;;;;27.67;6.00;;;12.60;99.90;;;;;;5052473;28;20270;-72
2024/01/21 12:47:19;;;;;;;24.07;6.00;;;12.80;99.90;;;;;;5052968;28;20374;-71
2024/01/21 12:49:45;;;;;;;23.93;6.07;;;12.90;99.90;;;;;;5052290;28;20182;-71
2024/01/21 12:52:10;;;;;;;32.73;7.00;;;12.70;99.90;;;;;;5031969;28;20169;-72
2024/01/21 12:54:36;;;;;;;23.07;6.17;;;12.70;99.90;;;;;;5053622;28;20252;-71
2024/01/21 12:57:03;;;;;;;28.63;6.70;;;12.70;99.90;;;;;;5034129;28;20189;-71
2024/01/21 12:59:30;;;;;;;21.87;6.30;;;12.40;99.90;;;;;;5016312;28;20268;-72
2024/01/21 13:01:56;;;;;;;15.43;5.10;;;12.50;99.90;;;;;;5033874;28;20226;-71
2024/01/21 13:04:22;;;;;;;35.45;7.75;;;12.70;99.90;;;;;;5045094;28;20226;-72
2024/01/21 13:06:48;;;;;;;33.57;7.17;;;;;;;;;;5035812;28;20498;-71
2024/01/21 13:09:14;;;;;;;20.58;5.97;;;13.00;99.90;;;;;;5053806;28;20177;-71
2024/01/21 13:11:39;;;;;;;27.13;6.70;;;12.80;99.90;;;;;;5053442;28;20267;-72
2024/01/21 13:14:05;;;;;;;31.63;7.63;;;12.60;99.90;;;;;;5022002;28;20182;-71
2024/01/21 13:16:33;;;;;;;17.23;5.57;;;;;;;;;;5033837;28;20174;-70
2024/01/21 13:18:59;;;;;;;25.43;6.50;;;;;;;;;;5033724;28;20185;-70
2024/01/21 13:21:26;;;;;;;30.03;7.23;;;12.70;99.90;;;;;;5033739;28;20170;-70